createdAt,value
2022-11-29T00:01:25.106Z,10.44
2022-11-29T00:03:52.491Z,10.44
2022-11-29T00:06:22.605Z,10.44
2022-11-29T00:08:52.186Z,10.46
2022-11-29T00:11:44.216Z,10.45
2022-11-29T00:14:14.327Z,10.42
2022-11-29T00:16:43.145Z,10.40
2022-11-29T00:19:11.492Z,10.40
2022-11-29T00:21:37.941Z,10.38
2022-11-29T00:24:04.968Z,10.38
2022-11-29T00:26:31.433Z,10.39
2022-11-29T00:28:57.802Z,10.30
2022-11-29T00:31:27.661Z,10.39
2022-11-29T00:33:54.086Z,10.38
2022-11-29T00:36:20.549Z,10.37
2022-11-29T00:38:46.968Z,10.36
2022-11-29T00:41:13.970Z,10.36
2022-11-29T00:43:40.373Z,10.35
2022-11-29T00:46:07.325Z,10.36
2022-11-29T00:48:37.151Z,10.35
2022-11-29T00:51:05.035Z,10.32
2022-11-29T00:53:32.048Z,10.34
2022-11-29T00:55:58.543Z,10.34
2022-11-29T00:58:24.951Z,10.34
2022-11-29T01:00:53.187Z,10.34
2022-11-29T01:03:19.828Z,10.34
2022-11-29T01:05:46.830Z,10.36
2022-11-29T01:08:14.087Z,10.34
2022-11-29T01:10:41.170Z,10.35
2022-11-29T01:13:08.710Z,10.32
2022-11-29T01:15:35.907Z,10.31
2022-11-29T01:18:02.636Z,10.28
2022-11-29T01:20:29.119Z,10.26
2022-11-29T01:22:55.796Z,10.24
2022-11-29T01:25:22.224Z,10.23
2022-11-29T01:27:48.600Z,10.21
2022-11-29T01:30:15.212Z,10.19
2022-11-29T01:32:41.692Z,10.18
2022-11-29T01:35:08.593Z,10.18
2022-11-29T01:37:35.123Z,10.24
2022-11-29T01:40:01.875Z,10.24
2022-11-29T01:42:28.287Z,10.19
2022-11-29T01:45:23.178Z,10.21
2022-11-29T01:47:55.014Z,10.20
2022-11-29T01:50:21.923Z,10.19
2022-11-29T01:52:48.807Z,10.17
2022-11-29T01:55:15.599Z,10.16
2022-11-29T01:57:43.266Z,10.10
2022-11-29T02:00:16.048Z,10.11
2022-11-29T02:03:10.139Z,10.12
2022-11-29T02:05:40.923Z,10.10
2022-11-29T02:08:09.713Z,10.07
2022-11-29T02:10:57.545Z,10.07
2022-11-29T02:13:39.148Z,10.07
2022-11-29T02:16:15.952Z,10.05
2022-11-29T02:19:04.071Z,10.06
2022-11-29T02:21:44.074Z,10.07
2022-11-29T02:24:39.643Z,10.03
2022-11-29T02:27:37.251Z,9.99
2022-11-29T02:30:18.529Z,9.97
2022-11-29T02:33:05.920Z,9.96
2022-11-29T02:36:00.323Z,9.95
2022-11-29T02:39:11.498Z,9.94
2022-11-29T02:42:22.134Z,9.94
2022-11-29T02:45:06.346Z,9.91
2022-11-29T02:47:42.466Z,9.94
2022-11-29T02:50:44.920Z,9.94
2022-11-29T02:53:25.914Z,9.94
2022-11-29T02:56:04.252Z,9.93
2022-11-29T02:59:06.079Z,9.93
2022-11-29T03:01:35.170Z,9.94
2022-11-29T03:04:23.509Z,9.97
2022-11-29T03:07:19.063Z,9.99
2022-11-29T03:10:11.619Z,9.96
2022-11-29T03:12:40.260Z,9.95
2022-11-29T03:15:09.361Z,9.90
2022-11-29T03:17:57.645Z,9.90
2022-11-29T03:20:45.500Z,9.91
2022-11-29T03:23:21.830Z,9.93
2022-11-29T03:25:57.260Z,9.91
2022-11-29T03:28:37.357Z,9.87
2022-11-29T03:31:14.102Z,9.82
2022-11-29T03:33:48.358Z,9.84
2022-11-29T03:36:27.701Z,9.82
2022-11-29T03:39:00.491Z,9.83
2022-11-29T03:41:41.275Z,9.83
2022-11-29T03:44:24.054Z,9.84
2022-11-29T03:46:58.366Z,9.83
2022-11-29T03:49:33.044Z,9.85
2022-11-29T03:52:20.628Z,9.85
2022-11-29T03:55:05.187Z,9.84
2022-11-29T03:57:57.076Z,9.82
2022-11-29T04:00:23.742Z,9.80
2022-11-29T04:03:07.764Z,9.79
2022-11-29T04:05:42.258Z,9.80
2022-11-29T04:08:35.035Z,9.74
2022-11-29T04:11:58.677Z,9.77
2022-11-29T04:14:33.778Z,9.77
2022-11-29T04:17:15.366Z,9.78
2022-11-29T04:20:04.873Z,9.81
2022-11-29T04:22:33.913Z,9.81
2022-11-29T04:25:44.304Z,9.83
2022-11-29T04:28:25.555Z,9.77
2022-11-29T04:31:07.144Z,9.75
2022-11-29T04:34:18.550Z,9.76
2022-11-29T04:37:07.784Z,9.72
2022-11-29T04:39:49.064Z,9.72
2022-11-29T04:42:46.073Z,9.74
2022-11-29T04:45:34.763Z,9.74
2022-11-29T04:48:06.899Z,9.74
2022-11-29T04:50:42.755Z,9.75
2022-11-29T04:53:32.521Z,9.75
2022-11-29T04:56:15.046Z,9.75
2022-11-29T04:59:02.211Z,9.77
2022-11-29T05:02:11.256Z,9.76
2022-11-29T05:05:03.220Z,9.73
2022-11-29T05:07:50.053Z,9.72
2022-11-29T05:10:41.720Z,9.74
2022-11-29T05:13:32.659Z,9.76
2022-11-29T05:16:22.880Z,9.80
2022-11-29T05:19:17.220Z,9.81
2022-11-29T05:22:20.170Z,9.81
2022-11-29T05:24:56.033Z,9.80
2022-11-29T05:27:45.171Z,9.80
2022-11-29T05:30:13.378Z,9.80
2022-11-29T05:33:21.836Z,9.81
2022-11-29T05:36:18.988Z,9.80
2022-11-29T05:39:10.267Z,9.84
2022-11-29T05:41:55.429Z,9.82
2022-11-29T05:44:31.593Z,9.82
2022-11-29T05:47:03.045Z,9.83
2022-11-29T05:49:39.549Z,9.82
2022-11-29T05:52:20.212Z,9.81
2022-11-29T05:55:03.408Z,9.82
2022-11-29T05:57:56.993Z,9.80
2022-11-29T06:00:24.582Z,9.78
2022-11-29T06:03:06.154Z,9.79
2022-11-29T06:05:42.226Z,9.79
2022-11-29T06:08:19.400Z,9.79
2022-11-29T06:11:13.863Z,9.80
2022-11-29T06:14:00.647Z,9.76
2022-11-29T06:16:36.453Z,9.77
2022-11-29T06:19:23.960Z,9.76
2022-11-29T06:22:00.107Z,9.76
2022-11-29T06:25:11.579Z,9.76
2022-11-29T06:27:59.066Z,9.77
2022-11-29T06:30:32.078Z,9.77
2022-11-29T06:33:21.453Z,9.78
2022-11-29T06:36:23.085Z,9.79
2022-11-29T06:38:49.767Z,9.76
2022-11-29T06:41:22.410Z,9.74
2022-11-29T06:43:49.637Z,9.73
2022-11-29T06:46:25.321Z,9.72
2022-11-29T06:49:02.086Z,9.73
2022-11-29T06:51:35.544Z,9.74
2022-11-29T06:54:28.855Z,9.73
2022-11-29T06:57:05.987Z,9.69
2022-11-29T06:59:51.213Z,9.66
2022-11-29T07:02:43.283Z,9.64
2022-11-29T07:05:29.117Z,9.61
2022-11-29T07:08:00.688Z,9.61
2022-11-29T07:10:31.220Z,9.60
2022-11-29T07:12:57.849Z,9.60
2022-11-29T07:15:24.914Z,9.59
2022-11-29T07:18:14.136Z,9.57
2022-11-29T07:21:01.817Z,9.48
2022-11-29T07:23:33.392Z,9.50
2022-11-29T07:26:08.600Z,9.49
2022-11-29T07:28:37.899Z,9.47
2022-11-29T07:31:29.379Z,9.50
2022-11-29T07:34:27.188Z,9.46
2022-11-29T07:37:10.698Z,9.45
2022-11-29T07:39:51.768Z,9.43
2022-11-29T07:42:27.117Z,9.42
2022-11-29T07:45:14.640Z,9.41
2022-11-29T07:47:40.966Z,9.41
2022-11-29T07:50:08.012Z,9.41
2022-11-29T07:52:34.537Z,9.40
2022-11-29T07:55:03.158Z,9.40
2022-11-29T07:57:29.518Z,9.39
2022-11-29T07:59:56.006Z,9.38
2022-11-29T08:02:29.849Z,9.37
2022-11-29T08:04:56.644Z,9.38
2022-11-29T08:07:23.473Z,9.36
2022-11-29T08:09:49.911Z,9.38
2022-11-29T08:12:17.966Z,9.33
2022-11-29T08:14:44.664Z,9.34
2022-11-29T08:17:11.280Z,9.35
2022-11-29T08:19:40.638Z,9.34
2022-11-29T08:22:07.021Z,9.36
2022-11-29T08:24:33.443Z,9.30
2022-11-29T08:26:59.792Z,9.27
2022-11-29T08:29:26.339Z,9.23
2022-11-29T08:31:53.807Z,9.24
2022-11-29T08:34:21.549Z,9.23
2022-11-29T08:36:48.987Z,9.19
2022-11-29T08:39:15.603Z,9.16
2022-11-29T08:41:44.917Z,9.17
2022-11-29T08:44:11.340Z,9.17
2022-11-29T08:46:56.651Z,9.17
2022-11-29T08:49:23.078Z,9.17
2022-11-29T08:51:52.856Z,9.16
2022-11-29T08:54:19.254Z,9.12
2022-11-29T08:59:32.196Z,9.15
2022-11-29T09:01:58.769Z,9.13
2022-11-29T09:04:25.184Z,9.11
2022-11-29T09:06:51.547Z,9.09
2022-11-29T09:09:18.112Z,9.07
2022-11-29T09:11:48.233Z,9.07
2022-11-29T09:14:18.116Z,9.08
2022-11-29T09:16:44.681Z,9.07
2022-11-29T09:19:14.211Z,9.10
2022-11-29T09:21:40.587Z,9.12
2022-11-29T09:24:07.112Z,9.09
2022-11-29T09:26:36.032Z,9.07
2022-11-29T09:29:05.037Z,9.08
2022-11-29T09:31:32.748Z,9.10
2022-11-29T09:33:59.740Z,9.13
2022-11-29T09:36:29.225Z,9.13
2022-11-29T09:38:57.043Z,9.12
2022-11-29T09:41:48.391Z,9.12
2022-11-29T09:44:31.572Z,9.11
2022-11-29T09:47:27.275Z,9.13
2022-11-29T09:50:16.408Z,9.14
2022-11-29T09:52:51.548Z,9.15
2022-11-29T09:55:39.147Z,9.19
2022-11-29T09:58:13.162Z,9.19
2022-11-29T10:00:48.398Z,9.24
2022-11-29T10:03:29.347Z,9.28
2022-11-29T10:06:02.207Z,9.28
2022-11-29T10:08:37.169Z,9.28
2022-11-29T10:11:19.537Z,9.27
2022-11-29T10:13:50.408Z,9.27
2022-11-29T10:16:34.339Z,9.24
2022-11-29T10:19:07.813Z,9.18
2022-11-29T10:21:36.846Z,9.23
2022-11-29T10:24:14.663Z,9.23
2022-11-29T10:26:41.417Z,9.23
2022-11-29T10:29:13.479Z,9.23
2022-11-29T10:31:43.975Z,9.24
2022-11-29T10:34:18.977Z,9.25
2022-11-29T10:36:52.188Z,9.30
2022-11-29T10:39:37.175Z,9.33
2022-11-29T10:42:32.632Z,9.37
2022-11-29T10:45:00.045Z,9.41
2022-11-29T10:47:26.549Z,9.43
2022-11-29T10:49:53.098Z,9.43
2022-11-29T10:52:21.954Z,9.44
2022-11-29T10:54:50.887Z,9.42
2022-11-29T10:57:21.907Z,9.45
2022-11-29T11:00:02.120Z,9.50
2022-11-29T11:02:28.860Z,9.51
2022-11-29T11:04:55.416Z,9.55
2022-11-29T11:07:42.160Z,9.63
2022-11-29T11:10:26.566Z,9.67
2022-11-29T11:13:18.595Z,9.71
2022-11-29T11:15:45.328Z,9.71
2022-11-29T11:18:21.234Z,9.73
2022-11-29T11:20:57.031Z,9.75
2022-11-29T11:23:25.742Z,9.78
2022-11-29T11:26:02.219Z,9.82
2022-11-29T11:28:34.153Z,9.79
2022-11-29T11:31:07.854Z,9.94
2022-11-29T11:33:41.040Z,10.06
2022-11-29T11:36:19.440Z,10.16
2022-11-29T11:38:59.441Z,10.23
2022-11-29T11:41:55.696Z,10.31
2022-11-29T11:44:52.291Z,10.68
2022-11-29T11:47:24.147Z,10.86
2022-11-29T11:50:12.761Z,10.96
2022-11-29T11:52:41.333Z,10.95
2022-11-29T11:55:19.097Z,10.89
2022-11-29T11:57:45.464Z,10.93
2022-11-29T12:01:03.422Z,10.94
2022-11-29T12:03:41.769Z,10.94
2022-11-29T12:06:28.263Z,10.98
2022-11-29T12:09:09.798Z,11.00
2022-11-29T12:12:00.183Z,11.05
2022-11-29T12:14:32.118Z,11.09
2022-11-29T12:17:08.112Z,11.40
2022-11-29T12:19:43.888Z,11.57
2022-11-29T12:22:16.523Z,11.75
2022-11-29T12:24:54.158Z,11.87
2022-11-29T12:27:20.643Z,11.94
2022-11-29T12:29:47.205Z,12.16
2022-11-29T12:32:27.906Z,12.22
2022-11-29T12:35:35.105Z,12.29
2022-11-29T12:38:13.312Z,12.63
2022-11-29T12:40:58.403Z,12.63
2022-11-29T12:43:53.264Z,12.53
2022-11-29T12:46:30.336Z,12.39
2022-11-29T12:49:12.022Z,12.25
2022-11-29T12:52:04.848Z,12.09
2022-11-29T12:54:50.007Z,11.96
2022-11-29T12:57:54.528Z,11.82
2022-11-29T13:00:21.488Z,11.66
2022-11-29T13:03:27.513Z,11.56
2022-11-29T13:06:12.634Z,11.44
2022-11-29T13:09:02.388Z,11.43
2022-11-29T13:11:37.774Z,11.37
2022-11-29T13:14:42.824Z,11.38
2022-11-29T13:17:26.956Z,11.33
2022-11-29T13:19:58.036Z,11.27
2022-11-29T13:22:45.436Z,11.26
2022-11-29T13:25:20.751Z,11.21
2022-11-29T13:28:00.224Z,11.21
2022-11-29T13:30:26.909Z,11.22
2022-11-29T13:33:12.122Z,11.21
2022-11-29T13:35:43.204Z,11.18
2022-11-29T13:38:19.670Z,11.14
2022-11-29T13:41:02.228Z,11.10
2022-11-29T13:43:50.190Z,11.04
2022-11-29T13:46:56.820Z,11.01
2022-11-29T13:49:55.282Z,10.98
2022-11-29T13:52:35.198Z,10.97
2022-11-29T13:55:05.993Z,10.92
2022-11-29T14:00:42.362Z,10.91
2022-11-29T14:03:24.087Z,10.90
2022-11-29T14:05:50.428Z,10.89
2022-11-29T14:08:37.699Z,10.85
2022-11-29T14:11:13.957Z,10.82
2022-11-29T14:13:58.992Z,10.81
2022-11-29T14:16:43.735Z,10.79
2022-11-29T14:19:10.092Z,10.78
2022-11-29T14:22:07.442Z,10.82
2022-11-29T14:24:36.850Z,10.81
2022-11-29T14:27:06.330Z,10.79
2022-11-29T14:29:48.388Z,10.78
2022-11-29T14:32:46.356Z,10.75
2022-11-29T14:35:13.013Z,10.72
2022-11-29T14:38:14.444Z,10.71
2022-11-29T14:40:40.799Z,10.66
2022-11-29T14:43:23.669Z,10.58
2022-11-29T14:46:29.038Z,10.56
2022-11-29T14:48:55.924Z,10.51
2022-11-29T14:51:24.871Z,10.48
2022-11-29T14:54:04.881Z,10.46
2022-11-29T14:56:31.114Z,10.43
2022-11-29T14:59:34.959Z,10.42
2022-11-29T15:02:14.529Z,10.38
2022-11-29T15:04:41.550Z,10.31
2022-11-29T15:07:16.933Z,10.25
2022-11-29T15:09:44.106Z,10.22
2022-11-29T15:12:21.461Z,10.21
2022-11-29T15:15:09.743Z,10.17
2022-11-29T15:18:00.929Z,10.11
2022-11-29T15:20:39.529Z,10.06
2022-11-29T15:23:11.150Z,10.01
2022-11-29T15:25:47.840Z,9.98
2022-11-29T15:28:21.625Z,9.90
2022-11-29T15:30:48.936Z,9.88
2022-11-29T15:33:24.432Z,9.80
2022-11-29T15:35:54.253Z,9.75
2022-11-29T15:38:22.671Z,9.73
2022-11-29T15:40:54.575Z,9.71
2022-11-29T15:43:27.012Z,9.69
2022-11-29T15:45:55.511Z,9.67
2022-11-29T15:48:27.601Z,9.65
2022-11-29T15:51:17.951Z,9.66
2022-11-29T15:53:49.928Z,9.65
2022-11-29T15:56:33.406Z,9.62
2022-11-29T15:59:04.490Z,9.60
2022-11-29T16:01:35.089Z,9.63
2022-11-29T16:04:02.160Z,9.63
2022-11-29T16:06:38.603Z,9.64
2022-11-29T16:09:12.266Z,9.63
2022-11-29T16:11:39.486Z,9.65
2022-11-29T16:14:11.938Z,9.66
2022-11-29T16:16:39.953Z,9.65
2022-11-29T16:19:16.120Z,9.65
2022-11-29T16:21:44.128Z,9.64
2022-11-29T16:24:38.974Z,9.65
2022-11-29T16:27:07.579Z,9.65
2022-11-29T16:29:37.087Z,9.68
2022-11-29T16:32:26.168Z,9.68
2022-11-29T16:34:53.289Z,9.72
2022-11-29T16:37:28.865Z,9.72
2022-11-29T16:40:00.563Z,9.76
2022-11-29T16:42:31.416Z,9.77
2022-11-29T16:45:07.000Z,9.76
2022-11-29T16:48:09.474Z,9.76
2022-11-29T16:50:35.865Z,9.79
2022-11-29T16:53:32.449Z,9.80
2022-11-29T16:55:58.803Z,9.78
2022-11-29T16:58:25.239Z,9.79
2022-11-29T17:00:51.617Z,9.81
2022-11-29T17:03:18.871Z,9.72
2022-11-29T17:05:45.267Z,9.83
2022-11-29T17:08:11.737Z,9.84
2022-11-29T17:10:38.132Z,9.84
2022-11-29T17:13:04.478Z,9.87
2022-11-29T17:15:32.206Z,9.88
2022-11-29T17:17:58.577Z,9.88
2022-11-29T17:20:24.934Z,9.89
2022-11-29T17:22:51.268Z,9.91
2022-11-29T17:25:17.646Z,9.91
2022-11-29T17:27:44.059Z,9.92
2022-11-29T17:30:11.434Z,9.92
2022-11-29T17:32:38.299Z,9.91
2022-11-29T17:35:05.134Z,9.91
2022-11-29T17:37:31.835Z,9.91
2022-11-29T17:39:58.240Z,9.92
2022-11-29T17:42:24.778Z,9.90
2022-11-29T17:44:51.186Z,9.95
2022-11-29T17:47:17.619Z,9.96
2022-11-29T17:49:44.509Z,9.99
2022-11-29T17:52:11.177Z,10.02
2022-11-29T17:54:37.834Z,10.05
2022-11-29T17:57:04.677Z,10.05
2022-11-29T17:59:31.074Z,10.05
2022-11-29T18:01:57.428Z,10.06
2022-11-29T18:04:23.914Z,10.09
2022-11-29T18:06:51.966Z,10.11
2022-11-29T18:09:19.428Z,10.11
2022-11-29T18:11:49.143Z,10.12
2022-11-29T18:14:28.207Z,10.13
2022-11-29T18:16:55.037Z,10.14
2022-11-29T18:19:23.284Z,10.12
2022-11-29T18:21:50.290Z,10.07
2022-11-29T18:24:17.196Z,10.10
2022-11-29T18:26:43.982Z,10.10
2022-11-29T18:29:10.843Z,10.07
2022-11-29T18:31:40.487Z,10.07
2022-11-29T18:34:12.874Z,10.07
2022-11-29T18:36:49.732Z,10.08
2022-11-29T18:39:19.056Z,10.10
2022-11-29T18:41:49.622Z,10.10
2022-11-29T18:44:18.178Z,10.11
2022-11-29T18:46:45.903Z,10.03
2022-11-29T18:49:14.803Z,10.14
2022-11-29T18:51:45.763Z,10.16
2022-11-29T18:54:13.680Z,10.13
2022-11-29T18:56:41.013Z,10.14
2022-11-29T18:59:10.777Z,10.12
2022-11-29T19:01:40.971Z,10.11
2022-11-29T19:04:09.845Z,10.10
2022-11-29T19:06:39.726Z,10.10
2022-11-29T19:09:08.335Z,10.10
2022-11-29T19:11:34.916Z,10.08
2022-11-29T19:14:04.777Z,10.01
2022-11-29T19:16:33.644Z,10.11
2022-11-29T19:19:01.170Z,10.11
2022-11-29T19:21:29.497Z,10.10
2022-11-29T19:23:58.074Z,10.06
2022-11-29T19:26:26.699Z,10.10
2022-11-29T19:28:53.758Z,10.12
2022-11-29T19:31:23.951Z,10.12
2022-11-29T19:33:53.956Z,10.13
2022-11-29T19:36:23.320Z,10.15
2022-11-29T19:38:54.822Z,10.17
2022-11-29T19:41:32.939Z,10.16
2022-11-29T19:44:01.178Z,10.16
2022-11-29T19:46:33.455Z,10.10
2022-11-29T19:49:03.303Z,10.10
2022-11-29T19:51:30.241Z,10.09
2022-11-29T19:54:10.661Z,10.09
2022-11-29T19:56:38.650Z,10.08
2022-11-29T19:59:06.665Z,10.10
2022-11-29T20:01:40.241Z,10.11
2022-11-29T20:04:07.635Z,10.10
2022-11-29T20:06:34.648Z,10.06
2022-11-29T20:09:01.940Z,10.03
2022-11-29T20:11:29.806Z,10.01
2022-11-29T20:14:01.079Z,10.01
2022-11-29T20:16:28.956Z,10.00
2022-11-29T20:18:56.904Z,9.98
2022-11-29T20:21:26.228Z,10.00
2022-11-29T20:24:02.904Z,9.99
2022-11-29T20:26:33.539Z,10.01
2022-11-29T20:29:01.739Z,10.02
2022-11-29T20:31:28.634Z,10.03
2022-11-29T20:33:58.827Z,10.04
2022-11-29T20:36:52.999Z,10.04
2022-11-29T20:40:07.654Z,10.05
2022-11-29T20:42:52.581Z,9.96
2022-11-29T20:45:19.270Z,10.07
2022-11-29T20:48:11.099Z,10.09
2022-11-29T20:50:38.797Z,10.10
2022-11-29T20:53:42.086Z,10.12
2022-11-29T20:56:10.376Z,10.09
2022-11-29T20:58:37.574Z,10.09
2022-11-29T21:01:04.914Z,10.16
2022-11-29T21:03:31.476Z,10.11
2022-11-29T21:06:01.675Z,10.16
2022-11-29T21:08:28.309Z,10.17
2022-11-29T21:11:01.151Z,10.20
2022-11-29T21:13:27.830Z,10.23
2022-11-29T21:15:54.517Z,10.25
2022-11-29T21:18:25.029Z,10.29
2022-11-29T21:21:06.174Z,10.27
2022-11-29T21:23:45.159Z,10.26
2022-11-29T21:26:16.802Z,10.27
2022-11-29T21:29:04.633Z,10.25
2022-11-29T21:31:31.360Z,10.23
2022-11-29T21:33:58.025Z,10.25
2022-11-29T21:36:24.529Z,10.23
2022-11-29T21:38:55.065Z,10.22
2022-11-29T21:41:21.901Z,10.21
2022-11-29T21:44:06.084Z,10.22
2022-11-29T21:46:33.794Z,10.22
2022-11-29T21:49:00.146Z,10.26
2022-11-29T21:51:26.667Z,10.28
2022-11-29T21:53:52.972Z,10.33
2022-11-29T21:56:19.318Z,10.36
2022-11-29T21:58:45.710Z,10.37
2022-11-29T22:01:15.129Z,10.36
2022-11-29T22:03:42.558Z,10.36
2022-11-29T22:06:16.241Z,10.37
2022-11-29T22:08:42.572Z,10.33
2022-11-29T22:11:14.925Z,10.34
2022-11-29T22:14:02.207Z,10.33
2022-11-29T22:16:29.951Z,10.33
2022-11-29T22:18:56.504Z,10.34
2022-11-29T22:21:25.615Z,10.35
2022-11-29T22:23:52.513Z,10.35
2022-11-29T22:26:20.786Z,10.38
2022-11-29T22:28:47.265Z,10.37
2022-11-29T22:31:13.681Z,10.40
2022-11-29T22:33:40.066Z,10.41
2022-11-29T22:36:09.149Z,10.42
2022-11-29T22:38:36.084Z,10.42
2022-11-29T22:41:07.741Z,10.41
2022-11-29T22:43:35.365Z,10.42
2022-11-29T22:46:12.976Z,10.44
2022-11-29T22:48:40.241Z,10.43
2022-11-29T22:51:08.544Z,10.43
2022-11-29T22:53:36.359Z,10.43
2022-11-29T22:56:05.968Z,10.43
2022-11-29T22:58:32.468Z,10.39
2022-11-29T23:01:09.510Z,10.38
2022-11-29T23:03:37.427Z,10.33
2022-11-29T23:06:09.776Z,10.30
2022-11-29T23:08:44.125Z,10.27
2022-11-29T23:11:13.158Z,10.25
2022-11-29T23:13:41.556Z,10.23
2022-11-29T23:16:12.558Z,10.20
2022-11-29T23:18:39.906Z,10.18
2022-11-29T23:21:12.384Z,10.15
2022-11-29T23:23:38.942Z,10.15
2022-11-29T23:26:07.495Z,10.12
2022-11-29T23:28:35.473Z,10.10
2022-11-29T23:31:02.219Z,10.11
2022-11-29T23:33:28.799Z,10.12
2022-11-29T23:36:03.680Z,9.97
2022-11-29T23:38:30.694Z,10.12
2022-11-29T23:40:59.644Z,10.13
2022-11-29T23:43:29.764Z,10.13
2022-11-29T23:45:56.647Z,10.09
2022-11-29T23:48:23.585Z,10.08
2022-11-29T23:50:50.196Z,10.03
2022-11-29T23:53:20.952Z,10.09
2022-11-29T23:55:56.034Z,10.11
2022-11-29T23:58:22.650Z,10.11
